Time;durP1;ratioP1;P1;durP2;ratioP2;P2;SDS_P1;SDS_P2;PMS_P1;PMS_P2;Temp;Humidity;BMP_temperature;BMP_pressure;BME280_temperature;BME280_humidity;BME280_pressure;Samples;Min_cycle;Max_cycle;Signal;HPM_P1;HPM_P2
2024/02/01 00:02:04;;;;;;;5.10;3.40;;;;;;;19.63;40.67;101043.81;5002446;28;20097;-39
2024/02/01 00:04:29;;;;;;;5.20;3.90;;;;;;;19.64;40.71;101041.97;5002877;28;20297;-39
2024/02/01 00:06:55;;;;;;;4.75;3.20;;;;;;;19.64;40.66;101033.84;5009164;28;20344;-39
2024/02/01 00:09:20;;;;;;;4.90;2.83;;;;;;;19.64;40.83;101033.84;5007932;28;20030;-39
2024/02/01 00:11:45;;;;;;;6.97;3.40;;;;;;;19.67;40.71;101036.16;5009575;28;20261;-39
2024/02/01 00:14:10;;;;;;;5.10;3.50;;;;;;;19.66;40.67;101028.22;5010804;28;20030;-39
2024/02/01 00:16:35;;;;;;;5.17;3.43;;;;;;;19.66;40.90;101023.63;5001064;28;20026;-39
2024/02/01 00:19:00;;;;;;;5.90;3.50;;;;;;;19.67;40.72;101014.47;4997156;28;20266;-39
2024/02/01 00:21:26;;;;;;;4.57;3.10;;;;;;;19.69;40.73;101017.84;4979103;28;20489;-39
2024/02/01 00:23:51;;;;;;;5.83;2.97;;;;;;;19.70;40.67;101018.69;4988413;28;20038;-39
2024/02/01 00:26:16;;;;;;;5.10;3.72;;;;;;;19.69;40.64;101012.44;4985170;28;20493;-38
2024/02/01 00:28:41;;;;;;;7.83;3.23;;;;;;;19.67;40.77;101014.47;5008136;28;20025;-39
2024/02/01 00:31:06;;;;;;;5.43;3.15;;;;;;;19.67;40.47;101005.50;5010094;28;20300;-39
2024/02/01 00:33:32;;;;;;;4.80;3.10;;;;;;;19.63;40.56;101008.56;5003126;28;20097;-39
2024/02/01 00:35:57;;;;;;;5.15;3.00;;;;;;;19.64;40.81;101006.72;5005322;28;20489;-39
2024/02/01 00:38:22;;;;;;;4.53;2.72;;;;;;;19.64;40.79;101014.84;5006521;28;20026;-38
2024/02/01 00:40:47;;;;;;;4.23;2.80;;;;;;;19.64;40.76;101017.56;4999380;28;20043;-39
2024/02/01 00:43:12;;;;;;;4.55;2.97;;;;;;;19.65;40.43;101011.09;4984130;28;20022;-39
2024/02/01 00:45:37;;;;;;;4.40;3.00;;;;;;;19.63;40.96;101005.03;5006530;28;20037;-39
2024/02/01 00:48:03;;;;;;;4.63;2.93;;;;;;;19.61;40.82;101013.31;5009926;28;20061;-39
2024/02/01 00:50:28;;;;;;;5.32;2.80;;;;;;;19.59;40.95;101007.25;5005350;28;20301;-39
2024/02/01 00:52:53;;;;;;;4.80;3.17;;;;;;;19.62;40.65;101019.63;4992851;28;20050;-39
2024/02/01 00:55:18;;;;;;;4.57;3.10;;;;;;;19.64;40.74;101025.69;5007120;28;20076;-39
2024/02/01 00:57:43;;;;;;;4.40;3.03;;;;;;;19.64;40.63;101033.84;4995189;28;20269;-39
2024/02/01 01:00:09;;;;;;;4.80;3.08;;;;;;;19.67;40.73;101033.47;4998686;28;20266;-39
2024/02/01 01:02:34;;;;;;;5.90;3.30;;;;;;;19.65;40.87;101035.50;4990404;28;20465;-39
2024/02/01 01:04:59;;;;;;;6.07;3.20;;;;;;;19.66;40.80;101037.19;5008993;28;20563;-39
2024/02/01 01:07:24;;;;;;;4.90;3.17;;;;;;;19.63;40.96;101035.69;5007700;28;20033;-39
2024/02/01 01:09:52;;;;;;;4.40;3.00;;;;;;;19.64;40.66;101039.25;5003584;28;20458;-39
2024/02/01 01:12:17;;;;;;;4.95;3.10;;;;;;;19.64;40.68;101037.38;5005158;28;20132;-39
2024/02/01 01:14:42;;;;;;;4.43;2.83;;;;;;;19.67;40.66;101029.91;5005667;28;20701;-39
2024/02/01 01:17:08;;;;;;;5.50;2.90;;;;;;;19.69;40.58;101034.13;4993748;28;20025;-39
2024/02/01 01:19:33;;;;;;;4.63;3.00;;;;;;;19.68;40.55;101037.88;4987879;28;20268;-39
2024/02/01 01:21:58;;;;;;;5.33;3.37;;;;;;;19.68;40.86;101037.03;4981226;28;20177;-39
2024/02/01 01:24:23;;;;;;;4.97;3.33;;;;;;;19.66;40.75;101039.06;4983654;28;20077;-39
2024/02/01 01:26:48;;;;;;;3.90;2.60;;;;;;;19.66;40.72;101037.19;4976290;28;20034;-39
2024/02/01 01:29:14;;;;;;;4.40;2.90;;;;;;;19.67;40.70;101041.59;4975302;28;20022;-39
2024/02/01 01:31:39;;;;;;;5.32;2.75;;;;;;;19.70;40.53;101038.53;4989453;28;20042;-39
2024/02/01 01:34:04;;;;;;;4.88;2.80;;;;;;;19.68;40.58;101046.00;4988337;28;20034;-39
2024/02/01 01:36:29;;;;;;;5.22;3.30;;;;;;;19.70;40.78;101059.38;4991282;28;20473;-39
2024/02/01 01:38:56;;;;;;;5.15;3.25;;;;;;;19.64;40.69;101066.38;4999977;28;20042;-39
2024/02/01 01:41:21;;;;;;;5.75;2.90;;;;;;;19.63;40.76;101062.81;4991094;28;20498;-39
2024/02/01 01:43:46;;;;;;;4.87;3.10;;;;;;;19.64;40.74;101060.97;4988956;28;20145;-39
2024/02/01 01:46:12;;;;;;;4.50;2.83;;;;;;;19.68;40.71;101059.56;4989352;28;20756;-39
2024/02/01 01:48:38;;;;;;;4.65;2.70;;;;;;;19.66;40.70;101055.34;4982172;28;20042;-39
2024/02/01 01:51:03;;;;;;;4.53;2.83;;;;;;;19.65;40.74;101046.34;4990513;28;20033;-39
2024/02/01 01:53:28;;;;;;;4.80;2.80;;;;;;;19.63;40.96;101043.81;4989409;28;20022;-39
2024/02/01 01:55:54;;;;;;;4.85;3.20;;;;;;;19.60;40.70;101035.22;4988769;28;20041;-38
2024/02/01 01:58:19;;;;;;;4.93;3.00;;;;;;;19.63;40.84;101029.44;4986103;28;20050;-39
2024/02/01 02:00:44;;;;;;;4.43;3.00;;;;;;;19.63;41.08;101021.31;4986309;28;20093;-39
2024/02/01 02:03:10;;;;;;;5.30;3.13;;;;;;;19.68;40.67;101013.44;4989155;28;20296;-39
2024/02/01 02:05:35;;;;;;;5.60;3.28;;;;;;;19.67;40.70;101017.19;4997000;28;20293;-39
2024/02/01 02:08:00;;;;;;;4.82;2.55;;;;;;;19.69;40.61;101011.59;4978580;28;20548;-38
2024/02/01 02:10:26;;;;;;;4.75;2.95;;;;;;;19.66;40.74;101007.34;4984131;28;20033;-39
2024/02/01 02:12:51;;;;;;;5.00;2.92;;;;;;;19.62;40.93;101009.59;4988714;28;20038;-39
2024/02/01 02:15:16;;;;;;;5.38;2.85;;;;;;;19.64;41.00;101004.00;4989326;28;20029;-39
2024/02/01 02:17:41;;;;;;;4.23;3.00;;;;;;;19.67;40.90;101003.63;4988825;28;20030;-39
2024/02/01 02:20:16;;;;;;;4.17;2.60;;;;;;;19.67;40.78;101009.03;4992292;28;20034;-39
2024/02/01 02:22:42;;;;;;;6.55;3.10;;;;;;;19.68;40.94;100993.63;4992600;28;20349;-39
2024/02/01 02:25:09;;;;;;;4.80;2.87;;;;;;;19.70;40.67;100991.56;4985930;28;20176;-41
2024/02/01 02:27:35;;;;;;;4.15;2.40;;;;;;;19.69;40.83;100990.72;5003444;28;20030;-39
2024/02/01 02:30:01;;;;;;;4.45;2.60;;;;;;;19.71;40.72;100993.25;5010404;28;20026;-39
2024/02/01 02:32:26;;;;;;;4.53;2.92;;;;;;;19.69;40.62;101003.47;5000820;28;20389;-39
2024/02/01 02:34:51;;;;;;;4.47;2.80;;;;;;;19.67;40.55;101008.22;4992654;28;20065;-39
2024/02/01 02:37:16;;;;;;;4.73;2.97;;;;;;;19.67;40.79;101002.78;4992674;28;20296;-39
2024/02/01 02:39:41;;;;;;;4.50;2.93;;;;;;;19.69;40.64;101009.72;4992804;28;20346;-39
2024/02/01 02:42:07;;;;;;;6.27;2.87;;;;;;;19.66;40.70;100993.78;5005744;28;20353;-39
2024/02/01 02:44:32;;;;;;;4.80;2.83;;;;;;;19.64;40.56;101010.25;5000643;28;20367;-39
2024/02/01 02:46:57;;;;;;;4.57;3.17;;;;;;;19.68;40.57;101018.03;4992659;28;20281;-39
2024/02/01 02:49:22;;;;;;;4.70;2.77;;;;;;;19.71;40.77;101012.25;4997341;28;20022;-39
2024/02/01 02:51:47;;;;;;;4.28;2.80;;;;;;;19.68;40.56;101010.75;5000328;28;20032;-39
2024/02/01 02:54:13;;;;;;;4.00;2.60;;;;;;;19.68;40.63;101007.19;5008203;28;20038;-39
2024/02/01 02:56:38;;;;;;;6.88;3.38;;;;;;;19.78;40.98;101005.09;4996117;28;20033;-39
2024/02/01 02:59:03;;;;;;;8.83;2.67;;;;;;;19.78;41.00;101000.47;5011058;28;20124;-39
2024/02/01 03:01:28;;;;;;;7.57;2.72;;;;;;;19.76;40.75;100991.69;5012376;28;20028;-39
2024/02/01 03:03:53;;;;;;;6.00;2.60;;;;;;;19.73;40.71;100997.50;5012087;28;20081;-39
2024/02/01 03:06:18;;;;;;;9.63;3.63;;;;;;;19.73;40.73;100986.63;5009056;28;20091;-39
2024/02/01 03:08:44;;;;;;;4.72;2.58;;;;;;;19.72;40.97;100982.25;5004503;28;20037;-39
2024/02/01 03:11:12;;;;;;;4.57;2.85;;;;;;;19.69;40.65;100974.47;5005558;28;20026;-39
2024/02/01 03:13:38;;;;;;;6.80;2.58;;;;;;;19.64;40.77;100971.47;4991522;28;20034;-39
2024/02/01 03:16:04;;;;;;;4.80;2.90;;;;;;;19.64;40.98;100966.88;4991777;28;20019;-39
2024/02/01 03:18:29;;;;;;;4.88;2.83;;;;;;;19.64;40.85;100971.47;4992644;28;20097;-39
2024/02/01 03:20:56;;;;;;;3.97;2.30;;;;;;;19.61;40.93;100982.66;4992102;28;20133;-39
2024/02/01 03:23:21;;;;;;;4.68;2.95;;;;;;;19.63;41.04;100980.63;4991871;28;20061;-39
2024/02/01 03:25:46;;;;;;;4.83;2.87;;;;;;;19.63;40.71;100986.88;4991814;28;20026;-39
2024/02/01 03:28:13;;;;;;;4.60;2.80;;;;;;;19.60;40.97;100986.41;4992016;28;20269;-39
2024/02/01 03:30:38;;;;;;;4.43;2.47;;;;;;;19.63;40.96;100983.34;5006073;28;20436;-39
2024/02/01 03:33:03;;;;;;;3.87;2.43;;;;;;;19.63;40.97;100972.47;4994197;28;20035;-39
2024/02/01 03:35:31;;;;;;;4.80;2.67;;;;;;;19.68;40.86;100969.22;5001359;28;20277;-41
2024/02/01 03:37:56;;;;;;;4.13;2.45;;;;;;;19.61;41.06;100974.53;4990898;28;20265;-41
2024/02/01 03:40:22;;;;;;;4.93;2.90;;;;;;;19.61;40.92;100978.06;4991801;28;20052;-41
2024/02/01 03:42:47;;;;;;;5.55;2.50;;;;;;;19.62;40.80;100984.34;4991282;28;20110;-41
2024/02/01 03:45:12;;;;;;;5.63;2.50;;;;;;;19.62;41.15;100978.94;4990744;28;20119;-41
2024/02/01 03:47:37;;;;;;;4.30;2.30;;;;;;;19.66;41.08;100982.94;4984775;28;20688;-41
2024/02/01 03:50:03;;;;;;;4.10;2.45;;;;;;;19.66;40.90;100979.41;4991504;28;20729;-41
2024/02/01 03:52:29;;;;;;;4.50;2.60;;;;;;;19.63;40.97;100989.59;4991573;28;20568;-41
2024/02/01 03:54:54;;;;;;;4.10;2.30;;;;;;;19.62;41.07;100996.03;4991210;28;20019;-41
2024/02/01 03:57:20;;;;;;;5.90;2.70;;;;;;;19.60;41.00;100995.38;4991288;28;20034;-41
2024/02/01 03:59:46;;;;;;;5.65;2.72;;;;;;;19.63;41.42;100980.63;4988571;28;20273;-41
2024/02/01 04:02:14;;;;;;;4.30;2.22;;;;;;;19.69;41.16;100977.16;5026904;28;51306;-41
2024/02/01 04:04:45;;;;;;;3.90;2.30;;;;;;;19.65;41.02;100981.25;5029649;28;20045;-41
2024/02/01 04:07:10;;;;;;;4.10;2.50;;;;;;;19.68;40.87;100972.75;5023406;28;20079;-41
2024/02/01 04:09:35;;;;;;;4.80;2.53;;;;;;;19.73;40.99;100969.50;5025107;28;20029;-41
2024/02/01 04:12:00;;;;;;;6.03;2.70;;;;;;;19.73;40.89;100964.94;5020595;28;20314;-41
2024/02/01 04:14:26;;;;;;;4.18;2.45;;;;;;;19.65;40.70;100973.13;5010318;28;20033;-41
2024/02/01 04:16:51;;;;;;;3.88;2.22;;;;;;;19.69;41.25;100969.03;5008031;28;20026;-41
2024/02/01 04:19:16;;;;;;;4.00;2.30;;;;;;;19.69;41.04;100965.50;5010352;28;20132;-41
2024/02/01 04:21:42;;;;;;;5.43;2.10;;;;;;;19.71;41.07;100961.56;5010609;28;20033;-41
2024/02/01 04:24:07;;;;;;;4.95;2.20;;;;;;;19.70;40.96;100965.28;5009937;28;20076;-41
2024/02/01 04:26:32;;;;;;;5.30;2.30;;;;;;;19.67;41.09;100968.38;5012661;28;20022;-38
2024/02/01 04:28:57;;;;;;;4.03;2.30;;;;;;;19.68;41.19;100972.75;5002852;28;20512;-38
2024/02/01 04:31:23;;;;;;;4.00;2.10;;;;;;;19.67;41.01;100968.38;5018410;28;20061;-38
2024/02/01 04:33:50;;;;;;;5.10;2.35;;;;;;;19.67;41.05;100965.66;5016928;28;20271;-38
2024/02/01 04:36:16;;;;;;;3.92;2.20;;;;;;;19.70;41.15;100970.72;5010175;28;20025;-38
2024/02/01 04:38:41;;;;;;;4.77;2.43;;;;;;;19.75;40.93;100972.88;5011064;28;20523;-38
2024/02/01 04:41:06;;;;;;;3.78;2.20;;;;;;;19.72;41.02;100968.69;5010207;28;20125;-38
2024/02/01 04:43:31;;;;;;;7.68;2.50;;;;;;;19.68;41.09;100959.22;5006054;28;20034;-38
2024/02/01 04:45:57;;;;;;;3.90;1.97;;;;;;;19.70;41.02;100965.28;5010216;28;20033;-38
2024/02/01 04:48:22;;;;;;;3.90;2.30;;;;;;;19.68;40.87;100966.50;5007882;28;20360;-38
2024/02/01 04:50:49;;;;;;;4.37;2.37;;;;;;;19.69;41.11;100971.75;5010084;28;20033;-38
2024/02/01 04:53:14;;;;;;;4.22;2.45;;;;;;;19.66;41.17;100969.38;5001606;28;20253;-38
2024/02/01 04:55:40;;;;;;;4.00;2.40;;;;;;;19.69;40.94;100969.03;5009787;28;20040;-38
2024/02/01 04:58:05;;;;;;;3.80;2.03;;;;;;;19.69;40.93;100969.03;5009179;28;20049;-38
2024/02/01 05:00:30;;;;;;;4.05;2.13;;;;;;;19.72;40.89;100965.97;5003868;28;20273;-38
2024/02/01 05:02:55;;;;;;;3.87;2.00;;;;;;;19.71;41.16;100966.13;5014704;28;20108;-38
2024/02/01 05:05:21;;;;;;;4.93;2.00;;;;;;;19.69;41.15;100969.03;5008675;28;20281;-39
2024/02/01 05:07:46;;;;;;;4.63;2.23;;;;;;;19.69;41.02;100958.19;5006707;28;20279;-39
2024/02/01 05:10:12;;;;;;;3.67;1.98;;;;;;;19.70;41.03;100953.59;4999848;28;20300;-39
2024/02/01 05:12:37;;;;;;;3.40;1.85;;;;;;;19.69;40.99;100943.78;5009049;28;20037;-39
2024/02/01 05:15:03;;;;;;;5.80;2.87;;;;;;;19.71;41.22;100950.72;5009772;28;20034;-39
2024/02/01 05:17:28;;;;;;;3.97;2.17;;;;;;;19.73;41.08;100950.53;5008493;28;20037;-38
2024/02/01 05:19:53;;;;;;;3.90;2.27;;;;;;;19.73;41.02;100947.81;5001870;28;20279;-39
2024/02/01 05:22:18;;;;;;;3.60;2.10;;;;;;;19.71;41.06;100948.00;5019652;28;20271;-39
2024/02/01 05:24:44;;;;;;;4.10;2.30;;;;;;;19.67;41.10;100940.41;5014662;28;20292;-39
2024/02/01 05:27:09;;;;;;;4.05;2.30;;;;;;;19.72;41.08;100937.97;5011267;28;20057;-39
2024/02/01 05:29:35;;;;;;;5.10;2.10;;;;;;;19.70;40.94;100951.75;5016285;28;20028;-39
2024/02/01 05:32:05;;;;;;;4.18;2.00;;;;;;;19.74;41.16;100947.63;5015903;28;20037;-38
2024/02/01 05:34:30;;;;;;;3.13;1.65;;;;;;;19.74;40.91;100944.91;5019247;28;20017;-42
2024/02/01 05:36:55;;;;;;;5.22;2.00;;;;;;;19.77;40.98;100955.41;5008508;28;20687;-42
2024/02/01 05:39:27;;;;;;;3.67;2.00;;;;;;;19.78;41.07;100948.13;5010471;28;20033;-42
2024/02/01 05:41:52;;;;;;;4.18;2.40;;;;;;;19.76;41.14;100958.31;5013016;28;21073;-41
2024/02/01 05:44:18;;;;;;;5.57;2.22;;;;;;;19.82;40.76;100962.97;5021843;28;20048;-41
2024/02/01 05:46:43;;;;;;;8.43;2.05;;;;;;;19.75;40.95;100965.56;5023069;28;20071;-41
2024/02/01 05:49:08;;;;;;;4.40;2.30;;;;;;;19.74;40.91;100960.34;5020894;28;20554;-41
2024/02/01 05:51:33;;;;;;;3.70;2.00;;;;;;;19.74;40.92;100963.88;5027912;28;20033;-39
2024/02/01 05:53:58;;;;;;;3.67;1.97;;;;;;;19.80;41.18;100956.88;5029201;28;20264;-39
2024/02/01 05:56:24;;;;;;;7.70;2.10;;;;;;;19.84;41.15;100960.09;5028514;28;20396;-39
2024/02/01 05:58:49;;;;;;;8.27;1.93;;;;;;;19.82;40.99;100954.84;5029251;28;20033;-39
2024/02/01 06:01:17;;;;;;;3.60;2.10;;;;;;;19.79;41.19;100958.78;5028805;28;20029;-39
2024/02/01 06:03:42;;;;;;;6.47;2.00;;;;;;;19.78;41.13;100957.09;5020516;28;20280;-39
2024/02/01 06:06:10;;;;;;;5.00;2.03;;;;;;;19.76;40.91;100956.41;5023148;28;20057;-39
2024/02/01 06:08:35;;;;;;;8.65;2.05;;;;;;;19.76;41.12;100963.72;5008075;28;20578;-39
2024/02/01 06:11:00;;;;;;;5.60;1.90;;;;;;;19.79;41.05;100972.34;5011739;28;20056;-39
2024/02/01 06:13:25;;;;;;;4.50;1.90;;;;;;;19.74;41.20;100963.88;5013511;28;20038;-39
2024/02/01 06:15:53;;;;;;;5.20;1.90;;;;;;;19.74;41.24;100972.03;5020024;28;20033;-39
2024/02/01 06:18:18;;;;;;;4.88;2.30;;;;;;;19.75;41.13;100965.56;5017789;28;20026;-39
2024/02/01 06:20:43;;;;;;;7.07;2.17;;;;;;;19.74;41.05;100972.03;5008499;28;20041;-39
2024/02/01 06:23:08;;;;;;;3.60;1.90;;;;;;;19.70;41.14;100968.00;5016526;28;20268;-39
2024/02/01 06:25:33;;;;;;;6.50;2.20;;;;;;;19.73;41.43;100972.22;5009229;28;20036;-39
2024/02/01 06:27:58;;;;;;;4.55;1.75;;;;;;;19.71;41.25;100972.41;5024393;28;20056;-39
2024/02/01 06:30:24;;;;;;;5.33;2.00;;;;;;;19.72;41.39;100973.25;5028373;28;20021;-39
2024/02/01 06:32:49;;;;;;;4.90;1.70;;;;;;;19.70;41.46;100976.16;5020553;28;20558;-39
2024/02/01 06:35:16;;;;;;;3.45;1.90;;;;;;;19.70;41.32;100989.72;5022652;28;20026;-39
2024/02/01 06:37:42;;;;;;;4.28;2.03;;;;;;;19.71;41.41;100971.56;5008786;28;20034;-39
2024/02/01 06:40:13;;;;;;;3.97;2.17;;;;;;;19.74;41.28;100972.03;5008124;28;20120;-39
2024/02/01 06:42:54;;;;;;;4.60;2.38;;;;;;;19.72;41.32;100968.69;5008227;28;20493;-39
2024/02/01 06:45:28;;;;;;;4.13;2.00;;;;;;;19.71;41.39;100969.69;5010211;28;20034;-39
2024/02/01 06:48:04;;;;;;;4.55;1.70;;;;;;;19.69;41.41;100968.19;5013627;28;20105;-39
2024/02/01 06:53:19;;;;;;;4.50;1.67;;;;;;;19.69;41.31;100969.03;5028476;28;20479;-39
2024/02/01 06:55:54;;;;;;;4.45;2.22;;;;;;;19.77;41.35;100971.66;5016191;28;20512;-41
2024/02/01 06:58:29;;;;;;;9.00;1.77;;;;;;;19.77;41.27;100974.38;5004694;28;20042;-42
2024/02/01 07:01:03;;;;;;;5.03;2.03;;;;;;;19.82;41.09;100967.56;5001978;28;20022;-42
2024/02/01 07:13:58;;;;;;;4.10;1.75;;;;;;;19.72;41.41;100978.66;5005869;28;20041;-41
2024/02/01 07:16:35;;;;;;;3.15;1.50;;;;;;;19.73;41.40;100975.78;5027472;28;20037;-42
2024/02/01 07:19:10;;;;;;;3.92;1.92;;;;;;;19.75;41.50;100981.84;5027453;28;20144;-42
2024/02/01 07:21:59;;;;;;;4.28;1.73;;;;;;;19.78;41.55;100986.94;5031574;28;20094;-42
2024/02/01 07:24:37;;;;;;;7.72;2.38;;;;;;;19.75;41.43;100979.13;5025516;28;20041;-42
2024/02/01 07:59:50;;;;;;;3.13;1.50;;;;;;;19.74;41.14;101015.44;4991936;28;20141;-42
2024/02/01 08:02:44;;;;;;;3.40;1.70;;;;;;;19.78;41.77;101005.09;5000165;28;20542;-41
2024/02/01 08:07:54;;;;;;;3.03;1.33;;;;;;;19.77;41.35;101008.81;5004584;28;20119;-42
2024/02/01 08:10:19;;;;;;;3.03;1.30;;;;;;;19.79;41.54;101018.44;5010423;28;20077;-41
2024/02/01 08:12:44;;;;;;;5.43;1.90;;;;;;;19.77;41.30;101016.94;5010098;28;20026;-42
2024/02/01 08:15:18;;;;;;;3.42;1.63;;;;;;;19.77;41.28;101015.06;5010578;28;20282;-41
2024/02/01 08:17:43;;;;;;;5.30;1.70;;;;;;;19.77;41.44;101031.34;4991303;28;20048;-42
2024/02/01 08:20:11;;;;;;;2.80;1.30;;;;;;;19.78;41.58;101030.31;5000799;28;20030;-42
2024/02/01 08:22:41;;;;;;;3.78;1.70;;;;;;;19.80;41.18;101025.56;4990966;28;20366;-38
2024/02/01 08:25:06;;;;;;;5.38;1.73;;;;;;;19.79;41.50;101026.59;4991181;28;20030;-38
2024/02/01 08:27:31;;;;;;;3.30;1.53;;;;;;;19.83;41.65;101029.78;5001745;28;20578;-38
2024/02/01 08:29:57;;;;;;;3.50;1.80;;;;;;;19.82;41.38;101027.25;4996563;28;20041;-38
2024/02/01 08:32:22;;;;;;;3.10;1.60;;;;;;;19.79;41.55;101029.31;4996147;28;20030;-38
2024/02/01 08:34:47;;;;;;;4.05;1.92;;;;;;;19.82;41.38;101027.25;4990571;28;20034;-38
2024/02/01 08:37:12;;;;;;;3.73;1.67;;;;;;;19.79;41.48;101026.59;5000619;28;20018;-38
2024/02/01 08:39:45;;;;;;;3.05;1.45;;;;;;;19.77;41.46;101036.78;5006571;28;20030;-38
2024/02/01 08:42:12;;;;;;;3.78;1.75;;;;;;;19.77;41.58;101030.53;4998106;28;20378;-38
2024/02/01 08:44:37;;;;;;;3.40;1.50;;;;;;;19.83;41.65;101029.78;5005797;28;20037;-38
2024/02/01 08:47:02;;;;;;;5.97;1.70;;;;;;;19.84;41.37;101033.34;5016092;28;20041;-38
2024/02/01 08:49:36;;;;;;;3.97;1.60;;;;;;;19.86;41.28;101034.88;5011524;28;20257;-38
2024/02/01 08:52:01;;;;;;;3.42;1.40;;;;;;;19.78;41.51;101037.63;5009637;28;20747;-38
2024/02/01 08:54:26;;;;;;;3.13;1.43;;;;;;;19.78;41.44;101046.59;5009334;28;20040;-38
2024/02/01 08:56:51;;;;;;;3.88;1.48;;;;;;;19.78;41.44;101043.88;5020946;28;20045;-38
2024/02/01 08:59:22;;;;;;;4.70;1.65;;;;;;;19.87;41.89;101052.84;5012686;28;20703;-38
2024/02/01 09:01:47;;;;;;;20.30;1.88;;;;;;;20.02;41.96;101047.47;5009274;28;20545;-38
2024/02/01 09:04:14;;;;;;;6.70;1.75;;;;;;;19.98;41.30;101053.44;5009157;28;20493;-38
2024/02/01 09:06:39;;;;;;;5.03;1.73;;;;;;;19.93;41.12;101060.25;5011867;28;20109;-33
2024/02/01 09:09:24;;;;;;;5.60;1.50;;;;;;;20.05;41.49;101059.81;5010766;28;20109;-32
2024/02/01 09:11:49;;;;;;;9.35;1.55;;;;;;;20.09;41.69;101061.13;4999739;28;20284;-32
2024/02/01 09:14:14;;;;;;;6.53;1.60;;;;;;;20.01;41.18;101062.06;4997582;28;20053;-32
2024/02/01 09:16:40;;;;;;;4.90;1.40;;;;;;;20.06;41.53;101059.63;5009045;28;20264;-32
2024/02/01 09:19:05;;;;;;;4.80;1.70;;;;;;;20.06;41.47;101056.09;5009335;28;20269;-32
2024/02/01 09:21:30;;;;;;;4.47;1.60;;;;;;;20.19;41.30;101058.19;5001797;28;20113;-32
2024/02/01 09:23:55;;;;;;;4.83;1.83;;;;;;;20.14;40.92;101064.16;5008690;28;20049;-32
2024/02/01 09:26:20;;;;;;;3.43;1.33;;;;;;;20.21;41.21;101064.28;5008707;28;20075;-32
2024/02/01 09:28:45;;;;;;;3.53;1.77;;;;;;;20.35;41.28;101063.44;4999715;28;20355;-32
2024/02/01 09:31:21;;;;;;;3.30;1.70;;;;;;;20.38;40.99;101065.81;5008377;28;20084;-32
2024/02/01 09:33:46;;;;;;;2.90;1.40;;;;;;;20.36;40.80;101069.72;5006645;28;20030;-32
2024/02/01 09:36:11;;;;;;;6.37;1.60;;;;;;;20.35;40.69;101074.31;5006125;28;20084;-32
2024/02/01 09:38:37;;;;;;;4.00;1.20;;;;;;;20.36;41.72;101078.72;5031393;23;20305;-26
2024/02/01 09:41:02;;;;;;;3.05;1.35;;;;;;;20.47;41.22;101085.56;5010694;28;20220;-25
2024/02/01 09:43:29;;;;;;;5.22;1.52;;;;;;;20.48;40.67;101089.97;5010913;28;20018;-25
2024/02/01 09:45:56;;;;;;;4.22;1.40;;;;;;;20.44;40.60;101085.09;5011142;28;20436;-22
2024/02/01 09:48:21;;;;;;;4.82;1.40;;;;;;;20.46;40.63;101093.91;5010381;28;20030;-25
2024/02/01 09:50:46;;;;;;;3.03;1.50;;;;;;;20.38;40.76;101103.81;4991600;28;20029;-24
2024/02/01 09:53:11;;;;;;;3.33;1.52;;;;;;;20.49;40.41;101093.53;4991346;28;20027;-26
2024/02/01 09:55:36;;;;;;;3.17;1.50;;;;;;;20.44;40.54;101101.38;4989725;28;20061;-24
2024/02/01 09:58:01;;;;;;;2.57;1.20;;;;;;;20.38;40.78;101098.38;4993626;28;20096;-25
2024/02/01 10:00:27;;;;;;;3.53;1.42;;;;;;;20.42;40.66;101098.84;4993193;28;20468;-26
2024/02/01 10:02:53;;;;;;;4.05;1.40;;;;;;;20.40;40.56;101098.19;4991258;28;20018;-23
2024/02/01 10:05:19;;;;;;;3.17;1.35;;;;;;;20.40;40.54;101101.75;4991622;28;20882;-22
2024/02/01 10:07:44;;;;;;;2.75;1.27;;;;;;;20.45;40.34;101098.47;4998278;28;20072;-24
2024/02/01 10:10:13;;;;;;;3.20;1.40;;;;;;;20.37;40.51;101104.84;4991874;28;20022;-26
2024/02/01 10:12:39;;;;;;;2.67;1.20;;;;;;;20.38;40.58;101098.38;4999629;28;20077;-24
2024/02/01 10:15:10;;;;;;;4.10;1.70;;;;;;;20.37;40.83;101107.56;5004966;28;20022;-26
2024/02/01 10:17:45;;;;;;;3.38;1.40;;;;;;;20.36;40.74;101105.00;5000088;28;20029;-25
2024/02/01 10:20:12;;;;;;;3.40;1.52;;;;;;;20.35;40.48;101114.19;4989822;28;20122;-25
2024/02/01 10:22:37;;;;;;;2.90;1.30;;;;;;;20.37;40.58;101109.41;4991034;28;20030;-26
2024/02/01 10:25:03;;;;;;;3.85;1.50;;;;;;;20.55;40.78;101109.91;4985296;28;20060;-24
2024/02/01 10:27:29;;;;;;;4.82;1.27;;;;;;;20.57;41.68;101107.88;4989132;28;20022;-25
2024/02/01 10:29:55;;;;;;;4.88;1.40;;;;;;;20.51;40.37;101097.75;4991315;28;20022;-26
2024/02/01 10:32:21;;;;;;;3.35;1.60;;;;;;;20.64;40.32;101101.72;4978275;28;20367;-24
2024/02/01 10:34:50;;;;;;;3.30;1.40;;;;;;;20.62;39.95;101104.59;4994577;28;20018;-25
2024/02/01 10:37:15;;;;;;;2.67;1.20;;;;;;;20.60;40.02;101086.78;4987111;28;20482;-25
2024/02/01 10:39:40;;;;;;;6.20;1.60;;;;;;;20.73;41.44;101093.31;4982017;28;20061;-26
2024/02/01 10:42:05;;;;;;;4.40;1.43;;;;;;;20.62;40.74;101092.91;4983845;28;20090;-22
2024/02/01 10:44:32;;;;;;;3.00;1.25;;;;;;;20.49;40.08;101080.78;4985094;28;20417;-25
2024/02/01 10:46:58;;;;;;;3.28;1.55;;;;;;;20.49;40.45;101088.09;4983422;28;20393;-26
2024/02/01 10:49:23;;;;;;;5.27;1.50;;;;;;;20.45;40.31;101073.19;5000086;28;20022;-24
2024/02/01 10:51:49;;;;;;;3.00;1.33;;;;;;;20.56;40.69;101075.47;4996035;28;20157;-27
2024/02/01 10:54:15;;;;;;;3.05;1.42;;;;;;;20.52;40.11;101069.56;4995172;28;20096;-26
2024/02/01 10:56:40;;;;;;;3.50;1.38;;;;;;;20.56;40.39;101064.59;4988434;28;20489;-28
2024/02/01 10:59:09;;;;;;;2.75;1.33;;;;;;;20.71;39.96;101064.59;4986006;28;20030;-26
2024/02/01 11:01:34;;;;;;;2.95;1.35;;;;;;;20.77;39.80;101069.31;4994813;28;20100;-24
2024/02/01 11:03:59;;;;;;;5.95;1.35;;;;;;;20.75;39.75;101073.25;4985629;28;20022;-26
2024/02/01 11:06:28;;;;;;;3.25;1.33;;;;;;;20.79;39.90;101069.97;4982533;28;20109;-28
2024/02/01 11:08:53;;;;;;;5.97;1.27;;;;;;;20.69;39.94;101062.06;4986711;28;20370;-25
2024/02/01 11:11:20;;;;;;;3.67;1.30;;;;;;;20.73;39.77;101066.13;4978911;28;20034;-25
2024/02/01 11:13:45;;;;;;;3.83;1.77;;;;;;;20.82;40.08;101063.31;4979636;28;20076;-25
2024/02/01 11:16:11;;;;;;;5.80;1.40;;;;;;;20.96;40.62;101062.47;4991163;28;20022;-27
2024/02/01 11:18:36;;;;;;;5.85;1.50;;;;;;;20.87;39.87;101052.75;4992831;28;20030;-25
2024/02/01 11:21:01;;;;;;;4.05;1.30;;;;;;;20.75;39.79;101056.97;4981608;28;20045;-24
2024/02/01 11:23:27;;;;;;;2.75;1.30;;;;;;;20.69;40.34;101051.19;4985394;28;20022;-25
2024/02/01 11:25:52;;;;;;;4.18;1.38;;;;;;;20.80;40.53;101057.22;4988141;28;20037;-24
2024/02/01 11:28:17;;;;;;;2.85;1.20;;;;;;;20.72;39.83;101061.69;4985416;28;20082;-27
2024/02/01 11:30:45;;;;;;;2.85;1.23;;;;;;;20.75;40.75;101060.50;4981119;28;20034;-24
2024/02/01 11:33:14;;;;;;;4.18;1.20;;;;;;;20.66;40.20;101062.44;4986221;28;20384;-26
2024/02/01 11:35:40;;;;;;;2.90;1.30;;;;;;;20.63;40.13;101062.81;4982257;28;20063;-27
2024/02/01 11:38:06;;;;;;;3.25;1.25;;;;;;;20.81;39.88;101058.91;4984971;28;20021;-25
2024/02/01 11:40:31;;;;;;;3.22;1.10;;;;;;;20.83;39.87;101059.56;4996714;28;20084;-26
2024/02/01 11:42:59;;;;;;;5.95;1.40;;;;;;;20.76;40.17;101056.75;4988927;28;20050;-24
2024/02/01 11:45:24;;;;;;;2.85;1.20;;;;;;;20.86;40.14;101064.66;4986552;28;20524;-25
2024/02/01 11:47:51;;;;;;;4.40;1.20;;;;;;;20.79;39.93;101060.97;4978798;28;20129;-25
2024/02/01 11:50:17;;;;;;;2.92;1.50;;;;;;;20.72;40.20;101052.72;4988451;28;20018;-24
2024/02/01 11:52:43;;;;;;;2.55;1.10;;;;;;;20.73;40.74;101068.84;4984881;28;20042;-25
2024/02/01 11:55:08;;;;;;;5.72;1.40;;;;;;;20.69;40.50;101064.78;4976227;28;20297;-26
2024/02/01 11:57:33;;;;;;;3.30;1.70;;;;;;;20.62;40.21;101069.28;4984537;28;20019;-26
2024/02/01 11:59:59;;;;;;;3.00;1.30;;;;;;;20.59;40.29;101077.81;4985440;28;20042;-26
2024/02/01 12:02:30;;;;;;;4.18;1.30;;;;;;;20.88;41.39;101065.28;4982603;28;20274;-26
2024/02/01 12:04:55;;;;;;;;;;;;;;;20.84;40.00;101070.25;4989464;28;20497;-23
2024/02/01 12:07:23;;;;;;;5.50;1.50;;;;;;;20.72;40.25;101077.16;4988150;28;19936;-25
2024/02/01 12:09:48;;;;;;;3.50;1.42;;;;;;;20.82;39.92;101064.19;4980868;28;20474;-26